Time;durP1;ratioP1;P1;durP2;ratioP2;P2;SDS_P1;SDS_P2;PMS_P1;PMS_P2;Temp;Humidity;BMP_temperature;BMP_pressure;BME280_temperature;BME280_humidity;BME280_pressure;Samples;Min_cycle;Max_cycle;Signal;HPM_P1;HPM_P2
2021/12/06 00:01:03;;;;;;;3.33;1.83;;;5.60;87.80;;;;;;5031109;28;20064;-72
2021/12/06 00:03:52;;;;;;;2.08;1.60;;;5.60;87.90;;;;;;5032405;28;20040;-71
2021/12/06 00:06:20;;;;;;;3.70;1.90;;;5.60;88.20;;;;;;5032520;28;20021;-72
2021/12/06 00:08:46;;;;;;;3.33;1.50;;;5.60;88.20;;;;;;5032629;28;20045;-71
2021/12/06 00:11:14;;;;;;;2.27;1.40;;;5.50;88.20;;;;;;5032747;28;20033;-73
2021/12/06 00:13:43;;;;;;;2.67;1.50;;;5.60;88.40;;;;;;5032789;28;20026;-72
2021/12/06 00:16:16;;;;;;;2.33;1.50;;;5.60;88.20;;;;;;5031217;28;20034;-71
2021/12/06 00:18:42;;;;;;;3.42;1.77;;;5.50;88.30;;;;;;5032441;28;20026;-73
2021/12/06 00:21:09;;;;;;;2.40;1.70;;;5.50;88.30;;;;;;5032410;28;20040;-73
2021/12/06 00:23:35;;;;;;;4.20;2.27;;;5.50;88.00;;;;;;5032662;28;20459;-71
2021/12/06 00:26:01;;;;;;;2.73;2.03;;;5.60;87.90;;;;;;5032635;28;20071;-71
2021/12/06 00:28:27;;;;;;;3.77;2.37;;;5.60;87.80;;;;;;5032480;28;20029;-74
2021/12/06 00:30:55;;;;;;;3.83;2.40;;;5.50;87.80;;;;;;5032406;28;20532;-72
2021/12/06 00:33:21;;;;;;;3.70;2.67;;;5.50;87.80;;;;;;5032418;28;20049;-72
2021/12/06 00:35:47;;;;;;;8.13;2.57;;;5.60;87.90;;;;;;5034761;28;20040;-74
2021/12/06 00:38:12;;;;;;;5.10;2.40;;;5.50;88.30;;;;;;5036259;28;20382;-72
2021/12/06 00:40:42;;;;;;;3.73;2.40;;;5.50;88.50;;;;;;5035824;28;20053;-74
2021/12/06 00:43:08;;;;;;;4.07;1.70;;;5.60;88.60;;;;;;5036248;28;20033;-72
2021/12/06 00:45:34;;;;;;;2.70;1.80;;;5.50;88.50;;;;;;5035955;28;20393;-72
2021/12/06 00:48:01;;;;;;;2.73;1.70;;;5.50;88.50;;;;;;5035860;28;20101;-74
2021/12/06 00:50:29;;;;;;;1.70;1.30;;;5.50;88.10;;;;;;5035707;28;20029;-71
2021/12/06 00:52:55;;;;;;;2.17;1.40;;;5.50;88.20;;;;;;5035844;28;20120;-74
2021/12/06 00:55:22;;;;;;;3.50;1.50;;;5.50;88.20;;;;;;5035719;28;20094;-71
2021/12/06 00:57:52;;;;;;;2.50;1.63;;;5.50;88.10;;;;;;5035546;28;20029;-73
2021/12/06 01:00:26;;;;;;;2.70;1.63;;;5.50;88.10;;;;;;5035573;28;20043;-72
2021/12/06 01:02:52;;;;;;;3.50;1.60;;;5.50;88.20;;;;;;5035297;28;20390;-73
2021/12/06 01:05:22;;;;;;;3.00;1.40;;;5.50;88.40;;;;;;5035376;28;20018;-72
2021/12/06 01:07:47;;;;;;;2.27;1.30;;;5.40;88.10;;;;;;5035525;28;20386;-71
2021/12/06 01:10:13;;;;;;;3.00;1.47;;;5.40;88.00;;;;;;5035531;28;20017;-73
2021/12/06 01:12:42;;;;;;;2.23;1.43;;;5.40;88.20;;;;;;5035254;28;20025;-72
2021/12/06 01:15:09;;;;;;;3.33;2.10;;;5.40;88.10;;;;;;5035306;28;20036;-73
2021/12/06 01:17:36;;;;;;;5.77;1.87;;;5.30;87.80;;;;;;5035363;28;20017;-72
2021/12/06 01:20:07;;;;;;;3.53;1.70;;;5.30;87.60;;;;;;5035417;28;20029;-72
2021/12/06 01:22:43;;;;;;;2.63;1.40;;;5.30;87.60;;;;;;5035329;28;20029;-72
2021/12/06 01:25:22;;;;;;;2.77;1.73;;;5.20;87.40;;;;;;5035166;28;20033;-72
2021/12/06 01:28:57;;;;;;;2.60;1.40;;;5.20;87.30;;;;;;5035179;28;20022;-72
2021/12/06 01:41:27;;;;;;;3.20;2.20;;;5.00;87.80;;;;;;5034528;28;20037;-74
2021/12/06 01:44:45;;;;;;;3.97;2.27;;;5.00;88.00;;;;;;5035048;28;20080;-74
2021/12/06 01:47:15;;;;;;;3.87;2.30;;;5.00;88.00;;;;;;5022162;28;20103;-73
2021/12/06 01:49:48;;;;;;;4.37;2.70;;;4.90;87.80;;;;;;5034611;28;20398;-74
2021/12/06 01:52:18;;;;;;;3.33;2.20;;;4.90;87.90;;;;;;5034839;28;20030;-73
2021/12/06 01:54:44;;;;;;;3.10;2.17;;;4.90;88.30;;;;;;5035057;28;20029;-73
2021/12/06 01:57:10;;;;;;;3.60;2.03;;;4.90;88.00;;;;;;5034693;28;20030;-73
2021/12/06 01:59:36;;;;;;;3.50;2.40;;;4.80;87.40;;;;;;5031866;28;20513;-71
2021/12/06 02:02:02;;;;;;;3.17;2.00;;;4.80;86.50;;;;;;5031493;28;20132;-72
2021/12/06 02:04:35;;;;;;;2.93;1.93;;;4.80;86.70;;;;;;5032740;28;20447;-72
2021/12/06 02:07:01;;;;;;;4.88;2.22;;;4.70;86.70;;;;;;5034229;28;20036;-72
2021/12/06 02:09:28;;;;;;;3.17;2.10;;;4.70;86.50;;;;;;5034537;28;20068;-72
2021/12/06 02:11:57;;;;;;;3.17;1.90;;;4.70;86.90;;;;;;5032937;28;20036;-72
2021/12/06 02:14:38;;;;;;;3.23;1.93;;;4.70;87.30;;;;;;5033939;28;20708;-72
2021/12/06 02:17:21;;;;;;;3.40;2.00;;;4.70;87.60;;;;;;5034660;28;20086;-72
2021/12/06 02:19:49;;;;;;;;;;;4.70;86.70;;;;;;5033293;28;20029;-73
2021/12/06 02:22:25;;;;;;;5.73;2.00;;;4.70;86.60;;;;;;5033725;28;19912;-73
2021/12/06 02:24:53;;;;;;;3.07;1.70;;;4.60;86.70;;;;;;5034092;28;20428;-72
2021/12/06 02:27:21;;;;;;;2.73;1.67;;;4.60;87.20;;;;;;5034181;28;20034;-74
2021/12/06 02:29:48;;;;;;;3.33;1.70;;;4.60;87.50;;;;;;5033849;28;20120;-74
2021/12/06 02:32:15;;;;;;;3.43;1.83;;;4.60;87.50;;;;;;5033856;28;20029;-74
2021/12/06 02:34:46;;;;;;;3.27;2.10;;;4.60;87.30;;;;;;5033748;28;20116;-74
2021/12/06 02:37:15;;;;;;;3.00;1.90;;;4.50;86.60;;;;;;5033701;28;20026;-74
2021/12/06 02:39:41;;;;;;;3.17;1.87;;;4.50;86.40;;;;;;5032553;28;20046;-73
2021/12/06 02:42:11;;;;;;;2.77;1.80;;;4.40;86.00;;;;;;5033620;28;20402;-73
2021/12/06 02:44:38;;;;;;;3.00;1.90;;;4.40;86.30;;;;;;5033621;28;20045;-73
2021/12/06 02:47:04;;;;;;;3.13;1.93;;;4.30;86.50;;;;;;5033725;28;20386;-73
2021/12/06 02:49:30;;;;;;;4.10;2.10;;;4.30;86.00;;;;;;5033828;28;20025;-73
2021/12/06 02:51:56;;;;;;;5.73;2.20;;;4.40;85.20;;;;;;5033304;28;20068;-73
2021/12/06 02:54:23;;;;;;;4.23;2.40;;;4.50;84.70;;;;;;5033674;28;20447;-72
2021/12/06 02:56:56;;;;;;;4.00;2.50;;;4.40;84.60;;;;;;5033195;28;20025;-72
2021/12/06 02:59:26;;;;;;;3.78;2.40;;;4.30;84.70;;;;;;5032650;28;20045;-74
2021/12/06 03:01:57;;;;;;;3.90;2.07;;;4.30;85.00;;;;;;5032931;28;20140;-72
2021/12/06 03:04:23;;;;;;;3.10;2.20;;;4.20;85.10;;;;;;5033375;28;20447;-72
2021/12/06 03:06:53;;;;;;;4.10;2.20;;;4.20;85.50;;;;;;5033342;28;20065;-73
2021/12/06 03:09:23;;;;;;;5.53;2.30;;;4.20;86.30;;;;;;5033364;28;20026;-74
2021/12/06 03:12:03;;;;;;;4.77;2.57;;;4.20;85.60;;;;;;5033277;28;20033;-71
2021/12/06 03:14:38;;;;;;;4.40;2.07;;;4.20;85.50;;;;;;5033389;28;20104;-72
2021/12/06 03:17:08;;;;;;;3.53;2.33;;;4.10;85.10;;;;;;5033319;28;20068;-72
2021/12/06 03:19:35;;;;;;;4.83;2.10;;;4.20;85.30;;;;;;5033290;28;20034;-73
2021/12/06 03:22:01;;;;;;;2.63;1.80;;;4.10;85.50;;;;;;5033281;28;20112;-74
2021/12/06 03:24:27;;;;;;;3.20;2.00;;;4.10;85.60;;;;;;5033060;28;20036;-74
2021/12/06 03:26:54;;;;;;;3.47;1.90;;;4.10;85.50;;;;;;5033197;28;20104;-74
2021/12/06 03:29:20;;;;;;;2.80;1.87;;;4.10;85.40;;;;;;5033017;28;20026;-73
2021/12/06 03:31:47;;;;;;;2.80;1.80;;;4.10;85.70;;;;;;5031612;28;20061;-73
2021/12/06 03:34:14;;;;;;;3.37;1.70;;;4.10;85.90;;;;;;5033406;28;20032;-72
2021/12/06 03:36:41;;;;;;;3.23;1.87;;;4.10;86.40;;;;;;5033099;28;20026;-72
2021/12/06 03:39:23;;;;;;;2.47;1.57;;;4.10;86.70;;;;;;5032874;28;20033;-74
2021/12/06 03:41:50;;;;;;;4.70;1.77;;;4.00;86.20;;;;;;5033045;28;20037;-73
2021/12/06 03:44:16;;;;;;;3.43;1.80;;;4.00;86.40;;;;;;5032886;28;20021;-72
2021/12/06 03:46:44;;;;;;;4.07;1.67;;;4.00;86.40;;;;;;5032780;28;20025;-72
2021/12/06 03:49:15;;;;;;;2.80;1.70;;;3.90;86.50;;;;;;5031645;28;20108;-72
2021/12/06 03:51:45;;;;;;;5.10;2.00;;;3.90;86.70;;;;;;5032754;28;20022;-74
2021/12/06 03:54:18;;;;;;;2.60;1.50;;;3.90;87.10;;;;;;5032937;28;20076;-72
2021/12/06 03:56:44;;;;;;;2.53;1.45;;;3.90;86.80;;;;;;5032676;28;20083;-72
2021/12/06 03:59:10;;;;;;;2.70;1.70;;;3.90;86.60;;;;;;5032933;28;20049;-73
2021/12/06 04:01:37;;;;;;;2.23;1.67;;;3.90;87.20;;;;;;5032668;28;20052;-74
2021/12/06 04:04:04;;;;;;;2.33;1.47;;;3.90;87.70;;;;;;5032968;28;20021;-73
2021/12/06 04:06:30;;;;;;;2.13;1.47;;;4.00;88.10;;;;;;5032877;28;20079;-72
2021/12/06 04:08:56;;;;;;;2.60;1.67;;;3.90;87.90;;;;;;5032747;28;20030;-72
2021/12/06 04:11:23;;;;;;;6.37;1.90;;;3.90;87.90;;;;;;5035952;28;20374;-74
2021/12/06 04:13:50;;;;;;;3.73;2.30;;;3.90;88.30;;;;;;5036507;28;20466;-73
2021/12/06 04:16:16;;;;;;;3.73;2.23;;;3.90;88.50;;;;;;5036452;28;20056;-72
2021/12/06 04:18:42;;;;;;;4.57;2.50;;;3.90;88.40;;;;;;5036681;28;20377;-72
2021/12/06 04:21:09;;;;;;;4.67;2.40;;;3.90;88.50;;;;;;5036407;28;20087;-73
2021/12/06 04:23:36;;;;;;;6.40;2.97;;;3.90;88.60;;;;;;5036597;28;20053;-73
2021/12/06 04:26:03;;;;;;;5.00;2.60;;;3.90;88.40;;;;;;5036215;28;20449;-73
2021/12/06 04:28:32;;;;;;;6.57;2.67;;;3.90;87.90;;;;;;5036165;28;20498;-72
2021/12/06 04:30:58;;;;;;;5.77;2.53;;;3.80;87.70;;;;;;5036138;28;20029;-74
2021/12/06 04:33:24;;;;;;;3.37;2.07;;;3.80;88.10;;;;;;5036237;28;20028;-74
2021/12/06 04:35:50;;;;;;;4.33;2.37;;;3.80;88.20;;;;;;5036364;28;20017;-74
2021/12/06 04:38:16;;;;;;;4.87;2.20;;;3.80;88.60;;;;;;5036028;28;20029;-72
2021/12/06 04:40:42;;;;;;;3.60;2.20;;;3.80;88.50;;;;;;5035718;28;20032;-72
2021/12/06 04:43:09;;;;;;;4.03;2.17;;;3.80;89.40;;;;;;5035769;28;20367;-73
2021/12/06 04:45:36;;;;;;;5.60;2.70;;;3.80;89.40;;;;;;5035979;28;20507;-75
2021/12/06 04:48:03;;;;;;;6.37;3.20;;;3.80;88.80;;;;;;5036004;28;20514;-74
2021/12/06 04:50:31;;;;;;;4.73;2.50;;;3.80;88.40;;;;;;5035806;28;20056;-73
2021/12/06 04:53:01;;;;;;;3.70;2.30;;;3.80;88.10;;;;;;5035919;28;20067;-74
2021/12/06 04:55:51;;;;;;;3.73;2.23;;;3.80;87.70;;;;;;5036089;28;20383;-73
2021/12/06 04:58:21;;;;;;;3.23;1.57;;;3.70;87.00;;;;;;5035955;28;20049;-73
2021/12/06 05:00:58;;;;;;;5.07;2.00;;;3.70;87.50;;;;;;5037577;28;20096;-72
2021/12/06 05:03:25;;;;;;;3.00;2.00;;;3.70;86.80;;;;;;5035636;28;20493;-73
2021/12/06 05:05:57;;;;;;;3.37;1.83;;;3.60;86.90;;;;;;5035712;28;20029;-73
2021/12/06 05:08:27;;;;;;;5.13;1.95;;;3.60;87.30;;;;;;5034299;28;20367;-74
2021/12/06 05:10:55;;;;;;;3.53;1.77;;;3.60;87.60;;;;;;5035471;28;20021;-73
2021/12/06 05:13:22;;;;;;;3.87;1.77;;;3.60;87.50;;;;;;5035766;28;20036;-73
2021/12/06 05:15:48;;;;;;;2.40;1.67;;;3.50;88.10;;;;;;5035526;28;20489;-73
2021/12/06 05:18:14;;;;;;;2.97;1.80;;;3.50;88.20;;;;;;5035385;28;20061;-74
2021/12/06 05:20:39;;;;;;;3.80;1.73;;;3.50;88.70;;;;;;5035233;28;20568;-73
2021/12/06 05:23:08;;;;;;;3.80;2.10;;;3.50;89.00;;;;;;5034407;28;20033;-73
2021/12/06 05:25:33;;;;;;;5.80;1.80;;;3.50;89.20;;;;;;5035361;28;20030;-73
2021/12/06 05:28:00;;;;;;;4.63;2.50;;;3.50;89.20;;;;;;5035376;28;20028;-74
2021/12/06 05:30:26;;;;;;;3.77;2.10;;;3.50;89.70;;;;;;5035123;28;20026;-75
2021/12/06 05:32:54;;;;;;;3.60;2.07;;;3.50;88.90;;;;;;5035054;28;20713;-75
2021/12/06 05:35:20;;;;;;;2.93;1.53;;;3.50;88.90;;;;;;5033778;28;20500;-73
2021/12/06 05:37:49;;;;;;;3.33;1.93;;;3.40;88.80;;;;;;5034904;28;20120;-74
2021/12/06 05:40:20;;;;;;;3.77;1.80;;;3.50;88.70;;;;;;5034462;28;20025;-75
2021/12/06 05:42:47;;;;;;;5.23;1.80;;;3.40;89.00;;;;;;5033772;28;20394;-72
2021/12/06 05:45:16;;;;;;;3.27;1.63;;;3.50;88.90;;;;;;5034989;28;20021;-74
2021/12/06 05:47:42;;;;;;;3.37;1.70;;;3.50;88.70;;;;;;5034939;28;20056;-72
2021/12/06 05:50:08;;;;;;;2.50;1.50;;;3.50;89.00;;;;;;5034529;28;20041;-72
2021/12/06 05:52:34;;;;;;;2.80;1.53;;;3.50;89.00;;;;;;5034808;28;20104;-72
2021/12/06 05:55:00;;;;;;;2.50;1.90;;;3.50;89.20;;;;;;5034903;28;20045;-72
2021/12/06 05:57:26;;;;;;;2.73;1.70;;;3.40;88.80;;;;;;5034877;28;20053;-72
2021/12/06 05:59:52;;;;;;;2.63;2.03;;;3.40;89.30;;;;;;5034751;28;20422;-71
2021/12/06 06:02:18;;;;;;;3.90;2.63;;;3.40;89.30;;;;;;5034674;28;20049;-71
2021/12/06 06:04:44;;;;;;;5.33;1.63;;;3.40;89.60;;;;;;5034482;28;20151;-72
2021/12/06 06:07:10;;;;;;;3.47;1.77;;;3.50;89.10;;;;;;5034629;28;20034;-72
2021/12/06 06:09:36;;;;;;;3.53;2.10;;;3.50;88.70;;;;;;5034329;28;20030;-72
2021/12/06 06:12:04;;;;;;;5.67;3.00;;;3.50;88.60;;;;;;5034395;28;20406;-71
2021/12/06 06:14:31;;;;;;;3.87;1.97;;;3.50;88.80;;;;;;5034664;28;20025;-71
2021/12/06 06:17:06;;;;;;;3.33;2.30;;;3.40;88.50;;;;;;5034403;28;20057;-72
2021/12/06 06:19:32;;;;;;;4.30;2.00;;;3.40;88.40;;;;;;5034307;28;20105;-71
2021/12/06 06:21:58;;;;;;;3.77;2.00;;;3.40;88.20;;;;;;5034186;28;20112;-71
2021/12/06 06:24:23;;;;;;;9.20;2.53;;;3.30;88.20;;;;;;5034265;28;20493;-72
2021/12/06 06:26:49;;;;;;;3.70;1.97;;;3.30;88.30;;;;;;5034189;28;20032;-72
2021/12/06 06:29:16;;;;;;;5.53;2.40;;;3.30;88.40;;;;;;5034154;28;20033;-72
2021/12/06 06:31:43;;;;;;;2.97;2.17;;;3.30;88.30;;;;;;5034018;28;20022;-72
2021/12/06 06:34:09;;;;;;;6.27;2.37;;;3.30;87.70;;;;;;5033822;28;20041;-71
2021/12/06 06:36:35;;;;;;;3.27;1.97;;;3.30;88.10;;;;;;5033756;28;20064;-72
2021/12/06 06:39:06;;;;;;;3.17;1.83;;;3.30;88.30;;;;;;5033600;28;20025;-72
2021/12/06 06:41:31;;;;;;;3.67;2.20;;;3.30;88.40;;;;;;5033672;28;20049;-72
2021/12/06 06:43:58;;;;;;;3.60;1.90;;;3.30;88.60;;;;;;5033859;28;20490;-71
2021/12/06 06:46:24;;;;;;;4.83;1.90;;;3.30;88.50;;;;;;5033691;28;20367;-71
2021/12/06 06:48:50;;;;;;;4.03;2.33;;;3.30;88.70;;;;;;5033745;28;20021;-72
2021/12/06 06:51:15;;;;;;;4.03;2.00;;;3.30;88.90;;;;;;5033751;28;20493;-72
2021/12/06 06:53:41;;;;;;;2.70;1.77;;;3.30;88.90;;;;;;5033525;28;20075;-71
2021/12/06 06:56:07;;;;;;;4.40;1.93;;;3.30;87.70;;;;;;5033309;28;20026;-72
2021/12/06 06:58:33;;;;;;;5.37;2.50;;;3.30;87.20;;;;;;5033496;28;20026;-72
2021/12/06 07:00:58;;;;;;;2.90;2.00;;;3.30;87.40;;;;;;5033221;28;20049;-71
2021/12/06 07:03:24;;;;;;;6.27;2.50;;;3.30;87.20;;;;;;5033564;28;20027;-71
2021/12/06 07:05:50;;;;;;;4.57;2.27;;;3.30;87.10;;;;;;5033314;28;20026;-72
2021/12/06 07:08:16;;;;;;;7.60;3.30;;;3.20;87.10;;;;;;5033187;28;20029;-71
2021/12/06 07:10:42;;;;;;;4.60;3.00;;;3.30;87.60;;;;;;5032771;28;20024;-72
2021/12/06 07:13:11;;;;;;;4.93;2.70;;;3.30;87.30;;;;;;5033139;28;20021;-72
2021/12/06 07:15:37;;;;;;;5.47;3.07;;;3.30;87.70;;;;;;5032956;28;20544;-71
2021/12/06 07:18:04;;;;;;;4.33;2.90;;;3.30;87.00;;;;;;5032557;28;20026;-72
2021/12/06 07:20:32;;;;;;;5.13;3.37;;;3.30;87.80;;;;;;5032583;28;20025;-71
2021/12/06 07:22:58;;;;;;;7.30;3.90;;;3.30;88.00;;;;;;5031699;28;20033;-71
2021/12/06 07:25:24;;;;;;;7.70;3.67;;;3.30;88.30;;;;;;5031127;28;20026;-72
2021/12/06 07:27:51;;;;;;;7.67;3.80;;;3.40;88.50;;;;;;5032967;28;20355;-71
2021/12/06 07:30:19;;;;;;;6.50;3.90;;;3.40;88.20;;;;;;5037968;28;20021;-72
2021/12/06 07:32:45;;;;;;;7.40;4.17;;;3.50;88.50;;;;;;5052501;28;20021;-71
2021/12/06 07:35:12;;;;;;;7.83;4.50;;;3.40;88.20;;;;;;5052598;28;20059;-71
2021/12/06 07:37:39;;;;;;;9.37;4.17;;;3.50;88.20;;;;;;5052524;28;20025;-71
2021/12/06 07:40:07;;;;;;;8.17;4.30;;;3.50;87.80;;;;;;5052467;28;20015;-71
2021/12/06 07:42:33;;;;;;;8.67;4.53;;;3.60;87.80;;;;;;5052441;28;20032;-72
2021/12/06 07:45:00;;;;;;;9.93;4.40;;;3.60;87.20;;;;;;5052079;28;20469;-72
2021/12/06 07:47:26;;;;;;;11.57;4.50;;;3.70;87.60;;;;;;5052264;28;20032;-71
2021/12/06 07:49:51;;;;;;;7.67;4.57;;;3.70;87.40;;;;;;5050701;28;20029;-73
2021/12/06 07:52:17;;;;;;;12.10;6.20;;;3.70;87.70;;;;;;5049853;28;20021;-73
2021/12/06 07:54:43;;;;;;;15.37;6.70;;;3.80;87.70;;;;;;5050058;28;20499;-73
2021/12/06 07:57:09;;;;;;;25.87;7.37;;;3.80;87.40;;;;;;5051912;28;20075;-72
2021/12/06 07:59:36;;;;;;;24.57;8.67;;;3.80;87.10;;;;;;5052188;28;20032;-73
2021/12/06 08:02:04;;;;;;;26.17;10.33;;;3.90;86.90;;;;;;5052049;28;20120;-74
2021/12/06 08:04:30;;;;;;;30.60;10.27;;;3.90;86.70;;;;;;5051067;28;20051;-74
2021/12/06 08:06:56;;;;;;;30.53;11.70;;;4.10;86.50;;;;;;5051920;28;20044;-75
2021/12/06 08:09:21;;;;;;;43.00;13.73;;;4.10;86.40;;;;;;5052453;28;20024;-74
2021/12/06 08:11:47;;;;;;;50.57;13.37;;;4.10;86.40;;;;;;5052186;28;20092;-74
2021/12/06 08:14:13;;;;;;;28.93;10.60;;;4.20;86.10;;;;;;5052426;28;20382;-74
2021/12/06 08:16:43;;;;;;;23.73;9.47;;;4.20;86.60;;;;;;5052681;28;20078;-73
2021/12/06 08:19:10;;;;;;;29.17;9.90;;;4.30;86.80;;;;;;5052082;28;20099;-74
2021/12/06 08:21:36;;;;;;;33.60;10.30;;;4.30;86.70;;;;;;5047510;28;20114;-74
2021/12/06 08:24:03;;;;;;;23.77;9.80;;;4.40;86.90;;;;;;5049147;28;20025;-73
2021/12/06 08:26:33;;;;;;;34.47;10.43;;;4.40;86.80;;;;;;5050631;28;20018;-73
2021/12/06 08:29:02;;;;;;;30.93;11.03;;;4.60;86.40;;;;;;5051561;28;20571;-73
2021/12/06 08:31:29;;;;;;;33.77;10.23;;;4.50;86.10;;;;;;5051177;28;20055;-73
2021/12/06 08:33:55;;;;;;;26.03;8.70;;;4.60;85.90;;;;;;5027426;28;20039;-73
2021/12/06 08:36:22;;;;;;;22.57;7.97;;;4.60;85.90;;;;;;5051834;28;20025;-73
2021/12/06 08:38:48;;;;;;;20.70;7.47;;;4.70;85.70;;;;;;5050441;28;20115;-73
2021/12/06 08:41:18;;;;;;;17.90;6.57;;;4.70;85.50;;;;;;5051920;28;20017;-73
2021/12/06 08:43:45;;;;;;;29.60;8.63;;;4.70;85.40;;;;;;5051947;28;20025;-72
2021/12/06 08:46:19;;;;;;;25.57;8.17;;;4.80;85.10;;;;;;5052208;28;20049;-73
2021/12/06 08:48:46;;;;;;;23.20;6.87;;;4.90;85.00;;;;;;5052264;28;20033;-73
2021/12/06 08:51:19;;;;;;;29.90;6.50;;;4.90;85.10;;;;;;5052131;28;20052;-73
2021/12/06 08:53:45;;;;;;;26.10;6.55;;;4.90;84.90;;;;;;5051886;28;20382;-73
2021/12/06 08:56:11;;;;;;;21.73;6.30;;;4.90;85.00;;;;;;5051482;28;20029;-73
2021/12/06 08:58:37;;;;;;;22.93;7.30;;;4.90;84.20;;;;;;5055098;28;20435;-73
2021/12/06 09:01:04;;;;;;;23.87;8.80;;;5.00;84.00;;;;;;5054399;28;20041;-74
2021/12/06 09:03:30;;;;;;;30.23;9.13;;;5.10;83.10;;;;;;5053026;28;20391;-72
2021/12/06 09:05:57;;;;;;;24.50;8.03;;;;;;;;;;5052960;28;20028;-73
2021/12/06 09:08:24;;;;;;;18.20;7.27;;;;;;;;;;5053944;28;20039;-75
2021/12/06 09:10:52;;;;;;;21.23;6.43;;;;;;;;;;5055228;28;20418;-73
2021/12/06 09:13:22;;;;;;;18.30;6.43;;;;;;;;;;5055573;28;20374;-73
2021/12/06 09:15:47;;;;;;;21.93;8.43;;;5.20;82.80;;;;;;5054277;28;20091;-72
2021/12/06 09:18:13;;;;;;;24.13;8.80;;;5.30;82.00;;;;;;5055189;28;20029;-73
2021/12/06 09:20:42;;;;;;;18.80;7.33;;;5.30;81.80;;;;;;5055431;28;20604;-73
2021/12/06 09:23:08;;;;;;;21.57;7.10;;;5.30;81.70;;;;;;5055276;28;20033;-73
2021/12/06 09:25:35;;;;;;;22.47;6.67;;;;;;;;;;5055017;28;20021;-73
2021/12/06 09:28:02;;;;;;;26.13;7.20;;;;;;;;;;5054818;28;20021;-73
2021/12/06 09:30:31;;;;;;;29.40;7.90;;;;;;;;;;5052612;28;20021;-74
2021/12/06 09:32:58;;;;;;;21.77;7.93;;;;;;;;;;5052000;28;20096;-73
2021/12/06 09:35:27;;;;;;;22.67;8.20;;;;;;;;;;5053724;28;20036;-73
2021/12/06 09:37:54;;;;;;;19.10;5.90;;;;;;;;;;5054417;28;20032;-73
2021/12/06 09:40:21;;;;;;;17.40;5.63;;;;;;;;;;5054114;28;20048;-72
2021/12/06 09:42:47;;;;;;;14.00;5.93;;;;;;;;;;5054500;28;20389;-73
2021/12/06 09:45:16;;;;;;;15.37;6.17;;;;;;;;;;5054523;28;20040;-72
2021/12/06 09:47:49;;;;;;;13.60;4.90;;;;;;;;;;5054918;28;20109;-73
2021/12/06 09:50:16;;;;;;;22.17;6.87;;;;;;;;;;5053630;28;20382;-72
2021/12/06 09:52:42;;;;;;;21.97;6.43;;;;;;;;;;5054772;28;20029;-73
2021/12/06 09:55:09;;;;;;;14.90;5.50;;;;;;;;;;5053468;28;20033;-73
2021/12/06 09:57:35;;;;;;;9.33;3.70;;;;;;;;;;5054835;28;20477;-72
2021/12/06 10:00:01;;;;;;;7.87;2.00;;;;;;;;;;5054857;28;20037;-73
2021/12/06 10:02:27;;;;;;;5.60;2.13;;;;;;;;;;5054459;28;20135;-73
2021/12/06 10:04:55;;;;;;;3.07;1.23;;;;;;;;;;5054554;28;20029;-73
2021/12/06 10:07:21;;;;;;;3.93;1.70;;;;;;;;;;5054011;28;20040;-72
2021/12/06 10:09:50;;;;;;;5.23;1.67;;;;;;;;;;5054507;28;20025;-73
2021/12/06 10:12:16;;;;;;;8.20;2.40;;;;;;;;;;5054902;28;20075;-73
2021/12/06 10:14:43;;;;;;;3.90;1.97;;;;;;;;;;5054692;28;20036;-73
2021/12/06 10:17:09;;;;;;;4.60;1.97;;;;;;;;;;5054353;28;20056;-72
2021/12/06 10:19:35;;;;;;;6.07;2.03;;;;;;;;;;5052981;28;20474;-73
2021/12/06 10:22:01;;;;;;;7.40;1.93;;;;;;;;;;5054231;28;20037;-74
2021/12/06 10:24:29;;;;;;;4.87;2.33;;;;;;;;;;5054280;28;20056;-73
2021/12/06 10:27:09;;;;;;;4.33;2.30;;;;;;;;;;5054296;28;20025;-72
2021/12/06 10:29:38;;;;;;;2.90;1.57;;;;;;;;;;5054296;28;20105;-73
2021/12/06 10:32:11;;;;;;;1.60;1.00;;;;;;;;;;5053927;28;20359;-73
2021/12/06 10:34:37;;;;;;;1.70;1.02;;;;;;;;;;5054249;28;20052;-73
2021/12/06 10:37:03;;;;;;;3.07;1.20;;;;;;;;;;5053979;28;20024;-72
2021/12/06 10:39:35;;;;;;;3.97;1.90;;;;;;;;;;5053950;28;20445;-73
2021/12/06 10:42:02;;;;;;;2.85;1.20;;;;;;;;;;5053790;28;20037;-72
2021/12/06 10:44:28;;;;;;;2.77;0.97;;;;;;;;;;5053737;28;20541;-72
2021/12/06 10:46:54;;;;;;;2.90;1.30;;;;;;;;;;5052635;28;20389;-73
2021/12/06 10:49:21;;;;;;;1.97;1.00;;;;;;;;;;5053902;28;20021;-73
2021/12/06 10:51:47;;;;;;;1.43;0.43;;;;;;;;;;5053492;28;20033;-72
2021/12/06 10:54:39;;;;;;;1.80;0.80;;;;;;;;;;5053749;28;20035;-72
2021/12/06 10:57:04;;;;;;;1.93;0.67;;;;;;;;;;5053196;28;20025;-73
2021/12/06 10:59:31;;;;;;;0.57;0.23;;;;;;;;;;5053676;28;20071;-73
2021/12/06 11:02:03;;;;;;;0.30;0.20;;;;;;;;;;5053198;28;20041;-73
2021/12/06 11:04:29;;;;;;;1.80;0.40;;;;;;;;;;5053628;28;20028;-72
2021/12/06 11:06:58;;;;;;;0.43;0.30;;;;;;;;;;5053394;28;20025;-73
2021/12/06 11:09:26;;;;;;;0.50;0.30;;;;;;;;;;5053596;28;20028;-73
2021/12/06 11:11:54;;;;;;;0.50;0.37;;;;;;;;;;5053472;28;20102;-72
2021/12/06 11:14:22;;;;;;;1.23;0.30;;;;;;;;;;5053433;28;20017;-72
2021/12/06 11:17:08;;;;;;;0.43;0.20;;;;;;;;;;5053537;28;20025;-73
2021/12/06 11:19:34;;;;;;;1.23;0.50;;;;;;;;;;5052366;28;20049;-73
2021/12/06 11:22:02;;;;;;;6.17;4.27;;;;;;;;;;5053108;28;20108;-73
2021/12/06 11:24:28;;;;;;;4.77;3.53;;;;;;;;;;5053283;28;20024;-73
2021/12/06 11:27:01;;;;;;;7.30;5.57;;;;;;;;;;5053229;28;20033;-73
2021/12/06 11:29:29;;;;;;;2.20;1.30;;;;;;;;;;5053143;28;20032;-73
2021/12/06 11:31:58;;;;;;;0.57;0.30;;;;;;;;;;5053051;28;20025;-73
2021/12/06 11:34:32;;;;;;;1.57;0.30;;;;;;;;;;5052015;28;20032;-73
2021/12/06 11:36:59;;;;;;;0.93;0.40;;;;;;;;;;5053283;28;20534;-73
2021/12/06 11:39:25;;;;;;;2.83;1.10;;;;;;;;;;5052971;28;20020;-73
2021/12/06 11:41:54;;;;;;;8.10;4.93;;;;;;;;;;5051596;28;20508;-73
2021/12/06 11:44:20;;;;;;;2.03;1.40;;;;;;;;;;5052979;28;20060;-72
2021/12/06 11:46:46;;;;;;;0.90;0.50;;;;;;;;;;5053202;28;20027;-72
2021/12/06 11:49:16;;;;;;;2.70;0.50;;;;;;;;;;5052912;28;20099;-73
2021/12/06 11:51:42;;;;;;;0.83;0.40;;;;;;;;;;5052680;28;20103;-72
2021/12/06 11:54:09;;;;;;;0.97;0.30;;;;;;;;;;5053146;28;20541;-72
2021/12/06 11:56:44;;;;;;;0.77;0.40;;;;;;;;;;5051749;28;20478;-73
2021/12/06 11:59:11;;;;;;;1.00;0.83;;;;;;;;;;5053067;28;20067;-73
2021/12/06 12:01:41;;;;;;;0.63;0.40;;;;;;;;;;5052568;28;20041;-73
2021/12/06 12:04:19;;;;;;;0.90;0.50;;;;;;;;;;5053005;28;20032;-73
2021/12/06 12:06:47;;;;;;;0.40;0.33;;;;;;;;;;5053304;28;20347;-73
2021/12/06 12:09:15;;;;;;;1.67;0.40;;;;;;;;;;5052841;28;20025;-73
2021/12/06 12:11:56;;;;;;;0.50;0.37;;;;;;;;;;5052700;28;20032;-73
2021/12/06 12:14:26;;;;;;;1.80;0.50;;;;;;;;;;5052850;28;20040;-72
2021/12/06 12:16:52;;;;;;;1.70;0.80;;;;;;;;;;5052501;28;20025;-72
2021/12/06 12:19:18;;;;;;;2.03;0.70;;;;;;;;;;5051284;28;20036;-74
2021/12/06 12:21:44;;;;;;;2.37;0.80;;;;;;;;;;5052390;28;20094;-73
2021/12/06 12:24:10;;;;;;;1.20;0.63;;;;;;;;;;5052590;28;20032;-73
2021/12/06 12:26:36;;;;;;;0.90;0.50;;;;;;;;;;5052982;28;20379;-73
2021/12/06 12:29:12;;;;;;;0.93;0.50;;;;;;;;;;5052864;28;20048;-74
2021/12/06 12:31:39;;;;;;;1.60;0.30;;;;;;;;;;5054581;28;20061;-73
2021/12/06 12:34:05;;;;;;;0.80;0.50;;;;;;;;;;5055058;28;20025;-73
2021/12/06 12:36:34;;;;;;;0.90;0.53;;;;;;;;;;5056408;28;20043;-73
2021/12/06 12:39:01;;;;;;;1.70;0.60;;;;;;;;;;5056182;28;20021;-73
2021/12/06 12:41:33;;;;;;;0.90;0.30;;;;;;;;;;5055996;28;20112;-72
2021/12/06 12:44:04;;;;;;;0.80;0.40;;;;;;;;;;5056136;28;20116;-73
2021/12/06 12:46:37;;;;;;;2.30;0.40;;;;;;;;;;5056446;28;20078;-73
2021/12/06 12:49:06;;;;;;;0.50;0.40;;;;;;;;;;5056197;28;20113;-73
2021/12/06 12:51:33;;;;;;;1.90;0.60;;;;;;;;;;5055429;28;20099;-75
2021/12/06 12:54:04;;;;;;;1.00;0.50;;;;;;;;;;5055971;28;20031;-73
2021/12/06 12:56:37;;;;;;;1.73;0.63;;;;;;;;;;5054254;28;20036;-72
2021/12/06 12:59:38;;;;;;;2.20;0.90;;;;;;;;;;5055758;28;20117;-73
2021/12/06 13:02:14;;;;;;;7.00;1.33;;;;;;;;;;4974349;28;20133;-73
2021/12/06 13:04:58;;;;;;;7.63;1.47;;;;;;;;;;5043850;28;20032;-73
2021/12/06 13:07:28;;;;;;;5.57;1.43;;;;;;;;;;5052842;28;20496;-75
2021/12/06 13:09:56;;;;;;;1.50;0.70;;;;;;;;;;5052778;28;20024;-75
2021/12/06 13:12:23;;;;;;;0.87;0.50;;;;;;;;;;5053489;28;20017;-74
2021/12/06 13:14:59;;;;;;;1.90;0.60;;;;;;;;;;5054978;28;20020;-73
2021/12/06 13:17:35;;;;;;;1.53;0.67;;;;;;;;;;5055292;28;20496;-73
2021/12/06 13:20:27;;;;;;;2.00;0.60;;;;;;;;;;5055534;28;20112;-73
2021/12/06 13:22:55;;;;;;;0.93;0.60;;;;;;;;;;5048015;28;20114;-73
2021/12/06 13:25:22;;;;;;;2.43;0.70;;;;;;;;;;5051696;28;20057;-73
2021/12/06 13:27:48;;;;;;;1.27;0.70;;;;;;;;;;5052104;28;20025;-73
2021/12/06 13:30:22;;;;;;;2.03;0.70;;;;;;;;;;5054653;28;20017;-72
2021/12/06 13:32:54;;;;;;;1.80;0.80;;;;;;;;;;5053690;28;20029;-72
2021/12/06 13:35:36;;;;;;;1.70;0.90;;;;;;;;;;5055112;28;20039;-72
2021/12/06 13:38:11;;;;;;;2.13;0.90;;;;;;;;;;5053336;28;20488;-72
2021/12/06 13:40:41;;;;;;;1.40;0.70;;;;;;;;;;5054504;28;20053;-72
2021/12/06 13:43:12;;;;;;;1.27;0.70;;;;;;;;;;5053727;28;20025;-73
2021/12/06 13:45:40;;;;;;;2.80;0.77;;;;;;;;;;5053698;28;20086;-73